Campbell Hall, New York
Current Conditions -  °F | °C
As of 10:54 AM on Monday 22 Dec 2014 (Local Time) from KMGJ Reporting Station
Overcast Overcast  
Wind Chill: 28°   Ceiling: 1100
Heat Index: 33°   Visibility: 9mi
Dew Point: 30°   Wind: 6mph
Humidity: 89%   Direction: 30°NNE
Pressure: 30.32"   Gusts: NA
Location:  41.46°N, 74.26°W
Report Text: KMGJ 221554Z AUTO 03005KT 9SM OVC011 01/M01 A3032 RMK AO2 SLP272 T00061011 TSNO
Loading
Personal Weather Stations






























Interactive Weather Map New forecast layout! Learn more

10-Day Weather Forecast

Advertisements
Track Severe Weather on mobile